sensor_id;sensor_type;location;lat;lon;timestamp;P1;durP1;ratioP1;P2;durP2;ratioP2
40997;SDS011;26740;45.944;12.480;2024-03-08T00:02:03;3.13;;;2.47;;
40997;SDS011;26740;45.944;12.480;2024-03-08T00:04:29;4.93;;;2.53;;
40997;SDS011;26740;45.944;12.480;2024-03-08T00:06:54;2.05;;;1.80;;
40997;SDS011;26740;45.944;12.480;2024-03-08T00:09:20;2.63;;;2.03;;
40997;SDS011;26740;45.944;12.480;2024-03-08T00:11:46;2.10;;;1.65;;
40997;SDS011;26740;45.944;12.480;2024-03-08T00:14:14;4.25;;;2.55;;
40997;SDS011;26740;45.944;12.480;2024-03-08T00:16:39;1.70;;;1.50;;
40997;SDS011;26740;45.944;12.480;2024-03-08T00:19:08;3.33;;;1.92;;
40997;SDS011;26740;45.944;12.480;2024-03-08T00:21:34;4.07;;;1.73;;
40997;SDS011;26740;45.944;12.480;2024-03-08T00:24:00;2.95;;;1.85;;
40997;SDS011;26740;45.944;12.480;2024-03-08T00:26:26;2.50;;;1.30;;
40997;SDS011;26740;45.944;12.480;2024-03-08T00:28:51;6.97;;;2.45;;
40997;SDS011;26740;45.944;12.480;2024-03-08T00:31:18;3.05;;;1.88;;
40997;SDS011;26740;45.944;12.480;2024-03-08T00:33:44;2.67;;;2.10;;
40997;SDS011;26740;45.944;12.480;2024-03-08T00:36:09;3.97;;;2.30;;
40997;SDS011;26740;45.944;12.480;2024-03-08T00:38:35;3.33;;;2.38;;
40997;SDS011;26740;45.944;12.480;2024-03-08T00:41:00;4.85;;;2.15;;
40997;SDS011;26740;45.944;12.480;2024-03-08T00:43:27;9.98;;;5.43;;
40997;SDS011;26740;45.944;12.480;2024-03-08T00:45:52;5.07;;;3.17;;
40997;SDS011;26740;45.944;12.480;2024-03-08T00:48:18;4.05;;;2.75;;
40997;SDS011;26740;45.944;12.480;2024-03-08T00:50:43;3.50;;;2.30;;
40997;SDS011;26740;45.944;12.480;2024-03-08T00:53:13;6.53;;;2.85;;
40997;SDS011;26740;45.944;12.480;2024-03-08T00:55:38;5.20;;;3.25;;
40997;SDS011;26740;45.944;12.480;2024-03-08T00:58:04;5.10;;;2.50;;
40997;SDS011;26740;45.944;12.480;2024-03-08T01:00:30;3.42;;;2.40;;
40997;SDS011;26740;45.944;12.480;2024-03-08T01:02:56;7.82;;;3.00;;
40997;SDS011;26740;45.944;12.480;2024-03-08T01:05:22;6.68;;;2.42;;
40997;SDS011;26740;45.944;12.480;2024-03-08T01:07:49;10.80;;;3.65;;
40997;SDS011;26740;45.944;12.480;2024-03-08T01:10:15;9.70;;;2.50;;
40997;SDS011;26740;45.944;12.480;2024-03-08T01:12:41;9.13;;;2.63;;
40997;SDS011;26740;45.944;12.480;2024-03-08T01:15:08;8.52;;;3.35;;
40997;SDS011;26740;45.944;12.480;2024-03-08T01:17:35;5.20;;;1.95;;
40997;SDS011;26740;45.944;12.480;2024-03-08T01:20:01;3.65;;;1.45;;
40997;SDS011;26740;45.944;12.480;2024-03-08T01:22:27;1.63;;;1.13;;
40997;SDS011;26740;45.944;12.480;2024-03-08T01:24:54;1.27;;;0.88;;
40997;SDS011;26740;45.944;12.480;2024-03-08T01:27:20;0.98;;;0.70;;
40997;SDS011;26740;45.944;12.480;2024-03-08T01:29:46;1.17;;;0.60;;
40997;SDS011;26740;45.944;12.480;2024-03-08T01:32:12;1.10;;;0.60;;
40997;SDS011;26740;45.944;12.480;2024-03-08T01:34:37;0.70;;;0.50;;
40997;SDS011;26740;45.944;12.480;2024-03-08T01:37:03;2.35;;;0.80;;
40997;SDS011;26740;45.944;12.480;2024-03-08T01:39:28;1.13;;;0.50;;
40997;SDS011;26740;45.944;12.480;2024-03-08T01:41:54;1.38;;;0.50;;
40997;SDS011;26740;45.944;12.480;2024-03-08T01:44:20;0.75;;;0.47;;
40997;SDS011;26740;45.944;12.480;2024-03-08T01:46:46;1.63;;;0.82;;
40997;SDS011;26740;45.944;12.480;2024-03-08T01:49:14;1.00;;;0.40;;
40997;SDS011;26740;45.944;12.480;2024-03-08T01:51:40;1.02;;;0.60;;
40997;SDS011;26740;45.944;12.480;2024-03-08T01:54:07;0.45;;;0.35;;
40997;SDS011;26740;45.944;12.480;2024-03-08T01:56:35;0.93;;;0.40;;
40997;SDS011;26740;45.944;12.480;2024-03-08T01:59:03;0.70;;;0.50;;
40997;SDS011;26740;45.944;12.480;2024-03-08T02:01:33;1.00;;;0.70;;
40997;SDS011;26740;45.944;12.480;2024-03-08T02:03:59;0.70;;;0.65;;
40997;SDS011;26740;45.944;12.480;2024-03-08T02:06:24;2.60;;;1.08;;
40997;SDS011;26740;45.944;12.480;2024-03-08T02:08:50;1.35;;;0.95;;
40997;SDS011;26740;45.944;12.480;2024-03-08T02:11:16;1.25;;;1.10;;
40997;SDS011;26740;45.944;12.480;2024-03-08T02:13:42;1.70;;;1.05;;
40997;SDS011;26740;45.944;12.480;2024-03-08T02:16:08;1.58;;;1.23;;
40997;SDS011;26740;45.944;12.480;2024-03-08T02:18:33;2.05;;;1.10;;
40997;SDS011;26740;45.944;12.480;2024-03-08T02:21:00;1.08;;;0.77;;
40997;SDS011;26740;45.944;12.480;2024-03-08T02:23:29;1.08;;;0.77;;
40997;SDS011;26740;45.944;12.480;2024-03-08T02:25:56;1.25;;;0.82;;
40997;SDS011;26740;45.944;12.480;2024-03-08T02:28:22;1.15;;;1.05;;
40997;SDS011;26740;45.944;12.480;2024-03-08T02:30:48;1.95;;;1.20;;
40997;SDS011;26740;45.944;12.480;2024-03-08T02:33:21;4.57;;;1.27;;
40997;SDS011;26740;45.944;12.480;2024-03-08T02:35:47;1.95;;;1.27;;
40997;SDS011;26740;45.944;12.480;2024-03-08T02:38:17;3.03;;;1.77;;
40997;SDS011;26740;45.944;12.480;2024-03-08T02:43:11;2.80;;;2.13;;
40997;SDS011;26740;45.944;12.480;2024-03-08T02:45:38;2.47;;;2.08;;
40997;SDS011;26740;45.944;12.480;2024-03-08T02:48:04;2.75;;;2.50;;
40997;SDS011;26740;45.944;12.480;2024-03-08T02:50:31;3.00;;;2.70;;
40997;SDS011;26740;45.944;12.480;2024-03-08T02:52:58;4.97;;;2.75;;
40997;SDS011;26740;45.944;12.480;2024-03-08T02:55:23;4.45;;;3.10;;
40997;SDS011;26740;45.944;12.480;2024-03-08T02:57:51;4.43;;;3.22;;
40997;SDS011;26740;45.944;12.480;2024-03-08T03:00:17;3.88;;;3.05;;
40997;SDS011;26740;45.944;12.480;2024-03-08T03:02:44;3.22;;;2.67;;
40997;SDS011;26740;45.944;12.480;2024-03-08T03:05:11;6.30;;;2.63;;
40997;SDS011;26740;45.944;12.480;2024-03-08T03:07:37;5.88;;;2.10;;
40997;SDS011;26740;45.944;12.480;2024-03-08T03:10:03;2.63;;;1.85;;
40997;SDS011;26740;45.944;12.480;2024-03-08T03:12:29;2.13;;;1.63;;
40997;SDS011;26740;45.944;12.480;2024-03-08T03:14:56;2.45;;;1.70;;
40997;SDS011;26740;45.944;12.480;2024-03-08T03:17:22;1.67;;;1.38;;
40997;SDS011;26740;45.944;12.480;2024-03-08T03:19:49;1.55;;;1.13;;
40997;SDS011;26740;45.944;12.480;2024-03-08T03:22:15;1.75;;;1.25;;
40997;SDS011;26740;45.944;12.480;2024-03-08T03:24:41;1.30;;;1.20;;
40997;SDS011;26740;45.944;12.480;2024-03-08T03:27:07;2.85;;;1.20;;
40997;SDS011;26740;45.944;12.480;2024-03-08T03:29:36;1.40;;;1.02;;
40997;SDS011;26740;45.944;12.480;2024-03-08T03:32:03;1.05;;;0.90;;
40997;SDS011;26740;45.944;12.480;2024-03-08T03:34:29;5.00;;;1.08;;
40997;SDS011;26740;45.944;12.480;2024-03-08T03:36:55;2.15;;;1.40;;
40997;SDS011;26740;45.944;12.480;2024-03-08T03:39:21;1.98;;;0.98;;
40997;SDS011;26740;45.944;12.480;2024-03-08T03:41:47;1.23;;;0.75;;
40997;SDS011;26740;45.944;12.480;2024-03-08T03:44:17;1.77;;;1.48;;
40997;SDS011;26740;45.944;12.480;2024-03-08T03:46:43;2.33;;;0.85;;
40997;SDS011;26740;45.944;12.480;2024-03-08T03:49:09;1.15;;;0.77;;
40997;SDS011;26740;45.944;12.480;2024-03-08T03:51:35;1.98;;;1.15;;
40997;SDS011;26740;45.944;12.480;2024-03-08T03:54:00;2.35;;;0.90;;
40997;SDS011;26740;45.944;12.480;2024-03-08T03:56:28;1.42;;;1.23;;
40997;SDS011;26740;45.944;12.480;2024-03-08T03:58:55;1.45;;;0.80;;
40997;SDS011;26740;45.944;12.480;2024-03-08T04:01:21;3.47;;;1.42;;
40997;SDS011;26740;45.944;12.480;2024-03-08T04:03:47;1.70;;;0.95;;
40997;SDS011;26740;45.944;12.480;2024-03-08T04:06:13;0.90;;;0.60;;
40997;SDS011;26740;45.944;12.480;2024-03-08T04:08:39;1.38;;;0.98;;
40997;SDS011;26740;45.944;12.480;2024-03-08T04:11:05;1.20;;;1.00;;
40997;SDS011;26740;45.944;12.480;2024-03-08T04:13:33;1.08;;;0.90;;
40997;SDS011;26740;45.944;12.480;2024-03-08T04:16:01;4.57;;;1.10;;
40997;SDS011;26740;45.944;12.480;2024-03-08T04:18:27;1.98;;;1.02;;
40997;SDS011;26740;45.944;12.480;2024-03-08T04:20:53;1.90;;;0.90;;
40997;SDS011;26740;45.944;12.480;2024-03-08T04:23:18;1.80;;;1.13;;
40997;SDS011;26740;45.944;12.480;2024-03-08T04:25:44;1.52;;;1.00;;
40997;SDS011;26740;45.944;12.480;2024-03-08T04:28:10;3.83;;;1.13;;
40997;SDS011;26740;45.944;12.480;2024-03-08T04:30:39;1.38;;;0.85;;
40997;SDS011;26740;45.944;12.480;2024-03-08T04:33:04;0.80;;;0.70;;
40997;SDS011;26740;45.944;12.480;2024-03-08T04:35:32;1.50;;;0.90;;
40997;SDS011;26740;45.944;12.480;2024-03-08T04:37:58;2.03;;;1.00;;
40997;SDS011;26740;45.944;12.480;2024-03-08T04:40:23;1.00;;;0.60;;
40997;SDS011;26740;45.944;12.480;2024-03-08T04:42:49;0.95;;;0.70;;
40997;SDS011;26740;45.944;12.480;2024-03-08T04:45:16;0.98;;;0.80;;
40997;SDS011;26740;45.944;12.480;2024-03-08T04:47:42;1.05;;;0.73;;
40997;SDS011;26740;45.944;12.480;2024-03-08T04:50:08;0.73;;;0.70;;
40997;SDS011;26740;45.944;12.480;2024-03-08T04:52:36;1.00;;;0.80;;
40997;SDS011;26740;45.944;12.480;2024-03-08T04:55:02;1.35;;;0.80;;
40997;SDS011;26740;45.944;12.480;2024-03-08T04:57:30;1.45;;;1.00;;
40997;SDS011;26740;45.944;12.480;2024-03-08T04:59:57;1.15;;;0.90;;
40997;SDS011;26740;45.944;12.480;2024-03-08T05:02:24;1.60;;;0.80;;
40997;SDS011;26740;45.944;12.480;2024-03-08T05:04:49;1.02;;;0.73;;
40997;SDS011;26740;45.944;12.480;2024-03-08T05:07:16;1.00;;;0.85;;
40997;SDS011;26740;45.944;12.480;2024-03-08T05:09:41;0.80;;;0.63;;
40997;SDS011;26740;45.944;12.480;2024-03-08T05:12:07;0.90;;;0.70;;
40997;SDS011;26740;45.944;12.480;2024-03-08T05:14:33;1.38;;;0.90;;
40997;SDS011;26740;45.944;12.480;2024-03-08T05:17:00;0.90;;;0.60;;
40997;SDS011;26740;45.944;12.480;2024-03-08T05:19:26;1.30;;;0.85;;
40997;SDS011;26740;45.944;12.480;2024-03-08T05:21:51;1.16;;;0.66;;
40997;SDS011;26740;45.944;12.480;2024-03-08T05:24:18;0.80;;;0.70;;
40997;SDS011;26740;45.944;12.480;2024-03-08T05:26:43;1.02;;;0.70;;
40997;SDS011;26740;45.944;12.480;2024-03-08T05:29:10;3.55;;;0.93;;
40997;SDS011;26740;45.944;12.480;2024-03-08T05:31:43;1.65;;;0.95;;
40997;SDS011;26740;45.944;12.480;2024-03-08T05:34:12;2.58;;;0.98;;
40997;SDS011;26740;45.944;12.480;2024-03-08T05:36:39;5.70;;;0.82;;
40997;SDS011;26740;45.944;12.480;2024-03-08T05:39:10;1.02;;;0.60;;
40997;SDS011;26740;45.944;12.480;2024-03-08T05:41:37;1.50;;;1.02;;
40997;SDS011;26740;45.944;12.480;2024-03-08T05:44:04;1.08;;;0.98;;
40997;SDS011;26740;45.944;12.480;2024-03-08T05:46:30;1.27;;;0.85;;
40997;SDS011;26740;45.944;12.480;2024-03-08T05:48:55;1.17;;;0.77;;
40997;SDS011;26740;45.944;12.480;2024-03-08T05:51:23;1.63;;;1.00;;
40997;SDS011;26740;45.944;12.480;2024-03-08T05:53:49;1.75;;;1.02;;
40997;SDS011;26740;45.944;12.480;2024-03-08T05:56:14;1.15;;;0.85;;
40997;SDS011;26740;45.944;12.480;2024-03-08T05:58:40;1.02;;;0.60;;
40997;SDS011;26740;45.944;12.480;2024-03-08T06:01:06;1.88;;;0.65;;
40997;SDS011;26740;45.944;12.480;2024-03-08T06:03:33;0.80;;;0.80;;
40997;SDS011;26740;45.944;12.480;2024-03-08T06:05:59;0.75;;;0.47;;
40997;SDS011;26740;45.944;12.480;2024-03-08T06:08:25;1.88;;;0.60;;
40997;SDS011;26740;45.944;12.480;2024-03-08T06:10:55;1.08;;;0.80;;
40997;SDS011;26740;45.944;12.480;2024-03-08T06:13:21;3.33;;;0.60;;
40997;SDS011;26740;45.944;12.480;2024-03-08T06:15:46;0.80;;;0.60;;
40997;SDS011;26740;45.944;12.480;2024-03-08T06:18:12;0.65;;;0.40;;
40997;SDS011;26740;45.944;12.480;2024-03-08T06:20:37;1.83;;;0.60;;
40997;SDS011;26740;45.944;12.480;2024-03-08T06:23:03;0.60;;;0.30;;
40997;SDS011;26740;45.944;12.480;2024-03-08T06:25:29;3.28;;;0.65;;
40997;SDS011;26740;45.944;12.480;2024-03-08T06:27:54;0.63;;;0.43;;
40997;SDS011;26740;45.944;12.480;2024-03-08T06:30:20;0.98;;;0.68;;
40997;SDS011;26740;45.944;12.480;2024-03-08T06:32:46;0.73;;;0.50;;
40997;SDS011;26740;45.944;12.480;2024-03-08T06:35:12;1.45;;;0.60;;
40997;SDS011;26740;45.944;12.480;2024-03-08T06:37:37;1.50;;;1.17;;
40997;SDS011;26740;45.944;12.480;2024-03-08T06:40:03;1.73;;;1.08;;
40997;SDS011;26740;45.944;12.480;2024-03-08T06:42:29;0.80;;;0.52;;
40997;SDS011;26740;45.944;12.480;2024-03-08T06:45:00;1.23;;;0.75;;
40997;SDS011;26740;45.944;12.480;2024-03-08T06:47:30;0.85;;;0.80;;
40997;SDS011;26740;45.944;12.480;2024-03-08T06:49:56;1.10;;;0.85;;
40997;SDS011;26740;45.944;12.480;2024-03-08T06:52:22;2.25;;;1.00;;
40997;SDS011;26740;45.944;12.480;2024-03-08T06:54:48;1.90;;;1.60;;
40997;SDS011;26740;45.944;12.480;2024-03-08T06:57:14;1.45;;;1.08;;
40997;SDS011;26740;45.944;12.480;2024-03-08T06:59:41;1.90;;;1.33;;
40997;SDS011;26740;45.944;12.480;2024-03-08T07:02:07;2.97;;;1.48;;
40997;SDS011;26740;45.944;12.480;2024-03-08T07:04:34;1.90;;;0.90;;
40997;SDS011;26740;45.944;12.480;2024-03-08T07:07:03;2.30;;;1.23;;
40997;SDS011;26740;45.944;12.480;2024-03-08T07:09:30;2.08;;;1.25;;
40997;SDS011;26740;45.944;12.480;2024-03-08T07:11:55;1.90;;;1.20;;
40997;SDS011;26740;45.944;12.480;2024-03-08T07:14:24;1.65;;;1.38;;
40997;SDS011;26740;45.944;12.480;2024-03-08T07:16:50;2.25;;;1.05;;
40997;SDS011;26740;45.944;12.480;2024-03-08T07:19:16;1.75;;;1.20;;
40997;SDS011;26740;45.944;12.480;2024-03-08T07:21:45;1.98;;;1.20;;
40997;SDS011;26740;45.944;12.480;2024-03-08T07:24:12;2.00;;;1.30;;
40997;SDS011;26740;45.944;12.480;2024-03-08T07:26:41;1.52;;;1.15;;
40997;SDS011;26740;45.944;12.480;2024-03-08T07:29:07;2.25;;;1.40;;
40997;SDS011;26740;45.944;12.480;2024-03-08T07:31:33;2.78;;;1.60;;
40997;SDS011;26740;45.944;12.480;2024-03-08T07:34:31;2.08;;;1.70;;
40997;SDS011;26740;45.944;12.480;2024-03-08T07:36:57;2.45;;;0.95;;
40997;SDS011;26740;45.944;12.480;2024-03-08T07:39:24;1.42;;;1.20;;
40997;SDS011;26740;45.944;12.480;2024-03-08T07:41:49;1.65;;;1.23;;
40997;SDS011;26740;45.944;12.480;2024-03-08T07:44:18;1.63;;;1.23;;
40997;SDS011;26740;45.944;12.480;2024-03-08T07:46:44;1.65;;;1.52;;
40997;SDS011;26740;45.944;12.480;2024-03-08T07:49:09;2.33;;;1.60;;
40997;SDS011;26740;45.944;12.480;2024-03-08T07:51:37;4.10;;;1.73;;
40997;SDS011;26740;45.944;12.480;2024-03-08T07:54:03;1.73;;;1.55;;
40997;SDS011;26740;45.944;12.480;2024-03-08T07:56:34;2.58;;;1.83;;
40997;SDS011;26740;45.944;12.480;2024-03-08T07:59:01;4.13;;;2.45;;
40997;SDS011;26740;45.944;12.480;2024-03-08T08:01:29;2.60;;;2.40;;
40997;SDS011;26740;45.944;12.480;2024-03-08T08:03:56;5.03;;;2.20;;
40997;SDS011;26740;45.944;12.480;2024-03-08T08:06:21;4.75;;;2.08;;
40997;SDS011;26740;45.944;12.480;2024-03-08T08:08:47;2.60;;;2.15;;
40997;SDS011;26740;45.944;12.480;2024-03-08T08:11:13;3.20;;;1.80;;
40997;SDS011;26740;45.944;12.480;2024-03-08T08:13:40;3.17;;;2.55;;
40997;SDS011;26740;45.944;12.480;2024-03-08T08:16:07;2.03;;;1.77;;
40997;SDS011;26740;45.944;12.480;2024-03-08T08:18:32;3.97;;;2.75;;
40997;SDS011;26740;45.944;12.480;2024-03-08T08:20:58;2.50;;;1.98;;
40997;SDS011;26740;45.944;12.480;2024-03-08T08:23:27;2.10;;;1.42;;
40997;SDS011;26740;45.944;12.480;2024-03-08T08:25:54;2.83;;;1.75;;
40997;SDS011;26740;45.944;12.480;2024-03-08T08:28:20;2.25;;;2.05;;
40997;SDS011;26740;45.944;12.480;2024-03-08T08:30:46;2.45;;;1.60;;
40997;SDS011;26740;45.944;12.480;2024-03-08T08:33:11;2.85;;;1.60;;
40997;SDS011;26740;45.944;12.480;2024-03-08T08:35:38;2.10;;;1.45;;
40997;SDS011;26740;45.944;12.480;2024-03-08T08:38:04;2.60;;;1.58;;
40997;SDS011;26740;45.944;12.480;2024-03-08T08:40:30;2.50;;;1.77;;
40997;SDS011;26740;45.944;12.480;2024-03-08T08:42:58;1.90;;;1.70;;
40997;SDS011;26740;45.944;12.480;2024-03-08T08:45:25;4.93;;;1.92;;
40997;SDS011;26740;45.944;12.480;2024-03-08T08:47:51;1.95;;;1.77;;
40997;SDS011;26740;45.944;12.480;2024-03-08T08:50:17;2.35;;;1.55;;
40997;SDS011;26740;45.944;12.480;2024-03-08T08:52:48;2.63;;;1.45;;
40997;SDS011;26740;45.944;12.480;2024-03-08T08:55:14;3.25;;;1.90;;
40997;SDS011;26740;45.944;12.480;2024-03-08T08:57:40;1.90;;;1.70;;
40997;SDS011;26740;45.944;12.480;2024-03-08T09:00:06;1.70;;;1.13;;
40997;SDS011;26740;45.944;12.480;2024-03-08T09:02:39;1.80;;;1.58;;
40997;SDS011;26740;45.944;12.480;2024-03-08T09:05:06;3.90;;;2.03;;
40997;SDS011;26740;45.944;12.480;2024-03-08T09:07:33;3.22;;;2.08;;
40997;SDS011;26740;45.944;12.480;2024-03-08T09:09:59;6.70;;;2.40;;
40997;SDS011;26740;45.944;12.480;2024-03-08T09:12:25;3.85;;;2.47;;
40997;SDS011;26740;45.944;12.480;2024-03-08T09:14:51;2.92;;;1.50;;
40997;SDS011;26740;45.944;12.480;2024-03-08T09:17:17;2.95;;;1.95;;
40997;SDS011;26740;45.944;12.480;2024-03-08T09:19:46;2.00;;;1.60;;
40997;SDS011;26740;45.944;12.480;2024-03-08T09:22:12;2.42;;;2.03;;
40997;SDS011;26740;45.944;12.480;2024-03-08T09:24:38;2.05;;;1.80;;
40997;SDS011;26740;45.944;12.480;2024-03-08T09:27:04;2.65;;;2.13;;
40997;SDS011;26740;45.944;12.480;2024-03-08T09:29:30;2.92;;;2.28;;
40997;SDS011;26740;45.944;12.480;2024-03-08T09:31:56;2.85;;;2.28;;
40997;SDS011;26740;45.944;12.480;2024-03-08T09:34:21;10.05;;;2.10;;
40997;SDS011;26740;45.944;12.480;2024-03-08T09:36:47;3.40;;;1.55;;
40997;SDS011;26740;45.944;12.480;2024-03-08T09:39:12;3.45;;;2.78;;
40997;SDS011;26740;45.944;12.480;2024-03-08T09:41:45;2.88;;;2.65;;
40997;SDS011;26740;45.944;12.480;2024-03-08T09:44:13;3.28;;;2.17;;
40997;SDS011;26740;45.944;12.480;2024-03-08T09:46:39;4.30;;;2.30;;
40997;SDS011;26740;45.944;12.480;2024-03-08T09:49:06;5.50;;;2.83;;
40997;SDS011;26740;45.944;12.480;2024-03-08T09:51:33;4.25;;;2.60;;
40997;SDS011;26740;45.944;12.480;2024-03-08T09:54:01;3.10;;;2.67;;
40997;SDS011;26740;45.944;12.480;2024-03-08T09:56:33;3.88;;;2.97;;
40997;SDS011;26740;45.944;12.480;2024-03-08T10:01:52;3.70;;;2.75;;
40997;SDS011;26740;45.944;12.480;2024-03-08T10:04:17;5.60;;;3.75;;
40997;SDS011;26740;45.944;12.480;2024-03-08T10:06:45;3.35;;;2.72;;
40997;SDS011;26740;45.944;12.480;2024-03-08T10:09:12;4.60;;;3.13;;
40997;SDS011;26740;45.944;12.480;2024-03-08T10:11:39;8.50;;;3.67;;
40997;SDS011;26740;45.944;12.480;2024-03-08T10:14:05;3.58;;;2.78;;
40997;SDS011;26740;45.944;12.480;2024-03-08T10:16:33;7.13;;;2.67;;
40997;SDS011;26740;45.944;12.480;2024-03-08T10:19:00;4.45;;;2.95;;
40997;SDS011;26740;45.944;12.480;2024-03-08T10:21:26;4.25;;;2.90;;
40997;SDS011;26740;45.944;12.480;2024-03-08T10:23:52;3.00;;;2.70;;
40997;SDS011;26740;45.944;12.480;2024-03-08T10:26:18;3.72;;;2.90;;
40997;SDS011;26740;45.944;12.480;2024-03-08T10:28:47;3.60;;;2.70;;
40997;SDS011;26740;45.944;12.480;2024-03-08T10:31:14;3.22;;;2.78;;
40997;SDS011;26740;45.944;12.480;2024-03-08T10:33:40;9.15;;;3.42;;
40997;SDS011;26740;45.944;12.480;2024-03-08T10:36:07;4.85;;;2.92;;
40997;SDS011;26740;45.944;12.480;2024-03-08T10:38:40;8.82;;;3.53;;
40997;SDS011;26740;45.944;12.480;2024-03-08T10:41:07;8.35;;;3.85;;
40997;SDS011;26740;45.944;12.480;2024-03-08T10:49:12;6.20;;;3.42;;
40997;SDS011;26740;45.944;12.480;2024-03-08T10:51:48;6.43;;;3.03;;
40997;SDS011;26740;45.944;12.480;2024-03-08T10:54:16;3.88;;;2.80;;
40997;SDS011;26740;45.944;12.480;2024-03-08T10:56:44;4.15;;;2.97;;
40997;SDS011;26740;45.944;12.480;2024-03-08T10:59:13;4.65;;;3.20;;
40997;SDS011;26740;45.944;12.480;2024-03-08T11:01:40;3.40;;;3.00;;
40997;SDS011;26740;45.944;12.480;2024-03-08T11:04:05;4.35;;;2.85;;
40997;SDS011;26740;45.944;12.480;2024-03-08T11:09:03;3.45;;;2.85;;
40997;SDS011;26740;45.944;12.480;2024-03-08T11:11:42;3.20;;;2.90;;
40997;SDS011;26740;45.944;12.480;2024-03-08T11:14:13;5.63;;;3.83;;
40997;SDS011;26740;45.944;12.480;2024-03-08T11:17:10;4.18;;;2.90;;
40997;SDS011;26740;45.944;12.480;2024-03-08T11:19:35;5.65;;;3.20;;
40997;SDS011;26740;45.944;12.480;2024-03-08T11:22:01;3.72;;;2.70;;
40997;SDS011;26740;45.944;12.480;2024-03-08T11:24:36;2.58;;;2.38;;
40997;SDS011;26740;45.944;12.480;2024-03-08T11:27:05;4.72;;;2.67;;
40997;SDS011;26740;45.944;12.480;2024-03-08T11:29:32;3.60;;;2.78;;
40997;SDS011;26740;45.944;12.480;2024-03-08T11:32:08;4.25;;;3.63;;
40997;SDS011;26740;45.944;12.480;2024-03-08T11:34:35;4.35;;;3.08;;
40997;SDS011;26740;45.944;12.480;2024-03-08T11:37:03;5.03;;;3.15;;
40997;SDS011;26740;45.944;12.480;2024-03-08T11:39:29;3.97;;;3.33;;
40997;SDS011;26740;45.944;12.480;2024-03-08T11:41:55;6.57;;;3.33;;
40997;SDS011;26740;45.944;12.480;2024-03-08T11:44:21;5.40;;;3.45;;
40997;SDS011;26740;45.944;12.480;2024-03-08T11:46:52;5.07;;;3.08;;
40997;SDS011;26740;45.944;12.480;2024-03-08T11:49:19;3.80;;;3.17;;
40997;SDS011;26740;45.944;12.480;2024-03-08T11:51:45;3.75;;;3.22;;
40997;SDS011;26740;45.944;12.480;2024-03-08T11:54:12;4.05;;;3.10;;
40997;SDS011;26740;45.944;12.480;2024-03-08T11:56:38;4.28;;;3.42;;
40997;SDS011;26740;45.944;12.480;2024-03-08T11:59:04;4.88;;;3.85;;
40997;SDS011;26740;45.944;12.480;2024-03-08T12:01:30;3.95;;;3.22;;
40997;SDS011;26740;45.944;12.480;2024-03-08T12:03:56;4.68;;;3.72;;
40997;SDS011;26740;45.944;12.480;2024-03-08T12:06:25;4.63;;;3.75;;
40997;SDS011;26740;45.944;12.480;2024-03-08T12:08:52;4.35;;;3.42;;
40997;SDS011;26740;45.944;12.480;2024-03-08T12:11:19;4.68;;;3.70;;
40997;SDS011;26740;45.944;12.480;2024-03-08T12:13:50;4.03;;;3.35;;
40997;SDS011;26740;45.944;12.480;2024-03-08T12:16:17;4.25;;;3.38;;
40997;SDS011;26740;45.944;12.480;2024-03-08T12:18:50;6.15;;;3.45;;
40997;SDS011;26740;45.944;12.480;2024-03-08T12:21:17;5.20;;;3.25;;
40997;SDS011;26740;45.944;12.480;2024-03-08T12:23:45;3.78;;;3.25;;
40997;SDS011;26740;45.944;12.480;2024-03-08T12:26:24;4.45;;;3.55;;
40997;SDS011;26740;45.944;12.480;2024-03-08T12:28:51;5.07;;;3.13;;
40997;SDS011;26740;45.944;12.480;2024-03-08T12:31:17;4.43;;;3.25;;
40997;SDS011;26740;45.944;12.480;2024-03-08T12:33:54;7.15;;;3.97;;
40997;SDS011;26740;45.944;12.480;2024-03-08T12:36:24;5.25;;;3.55;;
40997;SDS011;26740;45.944;12.480;2024-03-08T12:38:50;5.55;;;2.75;;
40997;SDS011;26740;45.944;12.480;2024-03-08T12:41:20;4.13;;;3.50;;
40997;SDS011;26740;45.944;12.480;2024-03-08T12:43:46;4.05;;;3.65;;
40997;SDS011;26740;45.944;12.480;2024-03-08T12:46:14;5.25;;;3.80;;
40997;SDS011;26740;45.944;12.480;2024-03-08T12:48:42;4.70;;;3.33;;
40997;SDS011;26740;45.944;12.480;2024-03-08T12:51:12;3.83;;;3.42;;
40997;SDS011;26740;45.944;12.480;2024-03-08T12:53:42;5.13;;;3.42;;
40997;SDS011;26740;45.944;12.480;2024-03-08T12:56:15;4.73;;;3.47;;
40997;SDS011;26740;45.944;12.480;2024-03-08T12:58:53;4.03;;;3.00;;
40997;SDS011;26740;45.944;12.480;2024-03-08T13:01:19;4.40;;;3.10;;
40997;SDS011;26740;45.944;12.480;2024-03-08T13:03:44;4.68;;;3.67;;
40997;SDS011;26740;45.944;12.480;2024-03-08T13:06:11;4.78;;;3.17;;
40997;SDS011;26740;45.944;12.480;2024-03-08T13:08:37;3.60;;;2.80;;
40997;SDS011;26740;45.944;12.480;2024-03-08T13:11:08;2.97;;;2.67;;
40997;SDS011;26740;45.944;12.480;2024-03-08T13:13:37;4.05;;;2.88;;
40997;SDS011;26740;45.944;12.480;2024-03-08T13:16:05;4.03;;;2.65;;
40997;SDS011;26740;45.944;12.480;2024-03-08T13:18:33;3.00;;;2.55;;
40997;SDS011;26740;45.944;12.480;2024-03-08T13:21:02;3.33;;;2.78;;
40997;SDS011;26740;45.944;12.480;2024-03-08T13:23:32;3.55;;;2.47;;
40997;SDS011;26740;45.944;12.480;2024-03-08T13:25:58;3.03;;;2.55;;
40997;SDS011;26740;45.944;12.480;2024-03-08T13:28:24;3.58;;;3.17;;
40997;SDS011;26740;45.944;12.480;2024-03-08T13:30:55;4.20;;;2.53;;
40997;SDS011;26740;45.944;12.480;2024-03-08T13:33:23;3.33;;;3.00;;
40997;SDS011;26740;45.944;12.480;2024-03-08T13:35:49;3.72;;;2.72;;
40997;SDS011;26740;45.944;12.480;2024-03-08T13:38:16;3.15;;;2.47;;
40997;SDS011;26740;45.944;12.480;2024-03-08T13:40:43;2.78;;;2.28;;
40997;SDS011;26740;45.944;12.480;2024-03-08T13:43:08;4.47;;;3.00;;
40997;SDS011;26740;45.944;12.480;2024-03-08T13:45:35;3.45;;;2.33;;
40997;SDS011;26740;45.944;12.480;2024-03-08T13:48:03;3.03;;;2.53;;
40997;SDS011;26740;45.944;12.480;2024-03-08T13:50:30;3.05;;;2.35;;
40997;SDS011;26740;45.944;12.480;2024-03-08T13:52:55;4.07;;;2.85;;
40997;SDS011;26740;45.944;12.480;2024-03-08T13:55:21;3.97;;;2.78;;
40997;SDS011;26740;45.944;12.480;2024-03-08T13:57:47;3.00;;;2.42;;
40997;SDS011;26740;45.944;12.480;2024-03-08T14:00:13;3.42;;;2.30;;
40997;SDS011;26740;45.944;12.480;2024-03-08T14:02:40;2.30;;;2.10;;
40997;SDS011;26740;45.944;12.480;2024-03-08T14:05:06;7.03;;;2.30;;
40997;SDS011;26740;45.944;12.480;2024-03-08T14:07:34;2.88;;;2.35;;
40997;SDS011;26740;45.944;12.480;2024-03-08T14:10:00;3.63;;;2.55;;
40997;SDS011;26740;45.944;12.480;2024-03-08T14:12:26;3.70;;;2.53;;
40997;SDS011;26740;45.944;12.480;2024-03-08T14:14:54;2.55;;;2.22;;
40997;SDS011;26740;45.944;12.480;2024-03-08T14:17:19;3.28;;;2.45;;
40997;SDS011;26740;45.944;12.480;2024-03-08T14:19:45;3.17;;;2.55;;
40997;SDS011;26740;45.944;12.480;2024-03-08T14:22:11;3.75;;;2.72;;
40997;SDS011;26740;45.944;12.480;2024-03-08T14:24:40;3.30;;;2.33;;
40997;SDS011;26740;45.944;12.480;2024-03-08T14:27:07;3.65;;;2.67;;
40997;SDS011;26740;45.944;12.480;2024-03-08T14:29:34;3.75;;;2.78;;
40997;SDS011;26740;45.944;12.480;2024-03-08T14:32:00;3.83;;;2.80;;
40997;SDS011;26740;45.944;12.480;2024-03-08T14:34:28;3.45;;;2.00;;
40997;SDS011;26740;45.944;12.480;2024-03-08T14:36:55;2.92;;;2.10;;
40997;SDS011;26740;45.944;12.480;2024-03-08T14:39:21;1.75;;;1.50;;
40997;SDS011;26740;45.944;12.480;2024-03-08T14:41:51;3.53;;;2.95;;
40997;SDS011;26740;45.944;12.480;2024-03-08T14:44:19;1.95;;;1.70;;
40997;SDS011;26740;45.944;12.480;2024-03-08T14:46:45;2.72;;;1.95;;